Time;durP1;ratioP1;P1;durP2;ratioP2;P2;SDS_P1;SDS_P2;PMS_P1;PMS_P2;Temp;Humidity;BMP_temperature;BMP_pressure;BME280_temperature;BME280_humidity;BME280_pressure;Samples;Min_cycle;Max_cycle;Signal;HPM_P1;HPM_P2
2023/06/01 00:02:22;;;;;;;8.23;7.43;;;20.70;99.90;;;;;;5116490;28;20388;-81
2023/06/01 00:04:49;;;;;;;7.17;6.47;;;20.60;99.90;;;;;;5116918;28;20442;-81
2023/06/01 00:07:15;;;;;;;8.60;6.97;;;20.50;99.90;;;;;;5116197;28;20181;-81
2023/06/01 00:09:41;;;;;;;10.20;7.73;;;20.50;99.90;;;;;;5097959;28;20928;-77
2023/06/01 00:12:07;;;;;;;8.17;6.57;;;20.50;99.90;;;;;;5116354;28;20553;-78
2023/06/01 00:14:33;;;;;;;10.03;6.97;;;20.40;99.90;;;;;;5132186;27;20674;-81
2023/06/01 00:16:59;;;;;;;9.10;7.10;;;20.40;99.90;;;;;;5097656;28;20455;-78
2023/06/01 00:19:26;;;;;;;9.53;6.67;;;20.30;99.90;;;;;;5116578;28;20535;-81
2023/06/01 00:21:55;;;;;;;8.07;6.90;;;20.30;99.90;;;;;;5116063;28;20710;-80
2023/06/01 00:24:21;;;;;;;7.67;6.87;;;20.20;99.90;;;;;;5116549;28;20411;-81
2023/06/01 00:26:47;;;;;;;8.50;7.57;;;20.20;99.90;;;;;;5097679;28;21000;-77
2023/06/01 00:29:13;;;;;;;9.27;7.17;;;20.20;99.90;;;;;;5116348;28;20415;-77
2023/06/01 00:31:39;;;;;;;9.10;6.97;;;20.20;99.90;;;;;;5115794;28;20478;-77
2023/06/01 00:34:05;;;;;;;9.00;7.10;;;20.10;99.90;;;;;;5116122;28;20650;-81
2023/06/01 00:36:31;;;;;;;8.80;7.13;;;20.00;99.90;;;;;;5115798;28;20651;-81
2023/06/01 00:39:01;;;;;;;8.03;6.70;;;20.00;99.90;;;;;;5115962;28;20185;-77
2023/06/01 00:41:28;;;;;;;9.27;7.40;;;20.00;99.90;;;;;;5115707;28;20439;-81
2023/06/01 00:43:54;;;;;;;10.30;7.80;;;19.90;99.90;;;;;;5115797;28;20427;-81
2023/06/01 00:46:20;;;;;;;10.93;7.60;;;19.80;99.90;;;;;;5131480;27;20438;-81
2023/06/01 00:48:46;;;;;;;8.30;6.57;;;19.80;99.90;;;;;;5115849;28;20911;-81
2023/06/01 00:51:14;;;;;;;9.60;7.10;;;19.70;99.90;;;;;;5115501;28;20245;-77
2023/06/01 00:53:41;;;;;;;9.87;7.10;;;19.70;99.90;;;;;;5115746;28;20174;-78
2023/06/01 00:56:07;;;;;;;15.03;8.60;;;19.70;99.90;;;;;;5115385;28;20839;-78
2023/06/01 00:58:33;;;;;;;9.90;7.40;;;19.60;99.90;;;;;;5097118;28;20526;-81
2023/06/01 01:00:59;;;;;;;12.27;8.10;;;19.60;99.90;;;;;;5115309;28;20447;-77
2023/06/01 01:03:25;;;;;;;8.43;7.20;;;19.50;99.90;;;;;;5097120;28;20273;-77
2023/06/01 01:05:57;;;;;;;8.07;7.27;;;19.50;99.90;;;;;;5115248;28;20422;-81
2023/06/01 01:08:40;;;;;;;13.13;7.90;;;19.50;99.90;;;;;;5115397;28;20814;-81
2023/06/01 01:11:23;;;;;;;8.33;7.43;;;19.40;99.90;;;;;;5115059;28;20534;-77
2023/06/01 01:14:05;;;;;;;8.00;7.03;;;19.40;99.90;;;;;;5115417;28;20465;-77
2023/06/01 01:16:56;;;;;;;10.07;7.43;;;19.40;99.90;;;;;;5115083;28;20429;-77
2023/06/01 01:19:34;;;;;;;8.87;7.97;;;19.30;99.90;;;;;;5103386;28;20435;-80
2023/06/01 01:22:20;;;;;;;10.33;7.83;;;19.30;99.90;;;;;;5114961;28;20913;-77
2023/06/01 01:25:07;;;;;;;9.23;7.80;;;19.30;99.90;;;;;;5115457;28;20437;-78
2023/06/01 01:27:53;;;;;;;9.40;7.57;;;19.30;99.90;;;;;;5114998;28;20401;-77
2023/06/01 01:30:22;;;;;;;11.13;9.93;;;19.20;99.90;;;;;;5096524;28;20455;-77
2023/06/01 01:32:50;;;;;;;9.67;8.67;;;19.20;99.90;;;;;;5114562;28;20463;-81
2023/06/01 01:35:17;;;;;;;10.50;8.77;;;19.20;99.90;;;;;;5114650;28;20519;-77
2023/06/01 01:37:53;;;;;;;11.60;8.33;;;19.10;99.90;;;;;;5114671;28;20447;-77
2023/06/01 01:40:19;;;;;;;10.07;8.50;;;19.10;99.90;;;;;;5114560;28;20452;-77
2023/06/01 01:42:46;;;;;;;11.83;8.30;;;19.10;99.90;;;;;;5096324;28;20488;-77
2023/06/01 01:45:13;;;;;;;12.30;8.63;;;19.00;99.90;;;;;;5096283;28;20954;-77
2023/06/01 01:47:53;;;;;;;10.20;8.87;;;19.00;99.90;;;;;;5114475;28;20402;-81
2023/06/01 01:50:23;;;;;;;12.77;8.33;;;19.00;99.90;;;;;;5114514;28;20426;-81
2023/06/01 01:52:51;;;;;;;8.33;7.40;;;19.00;99.90;;;;;;5114306;28;20827;-78
2023/06/01 01:55:23;;;;;;;9.10;8.10;;;19.00;99.90;;;;;;5114432;28;20422;-77
2023/06/01 01:57:50;;;;;;;10.23;8.40;;;19.00;99.90;;;;;;5096376;28;20428;-80
2023/06/01 02:00:17;;;;;;;10.80;8.90;;;19.00;99.90;;;;;;5114322;28;20865;-77
2023/06/01 02:02:45;;;;;;;10.17;8.33;;;18.90;99.90;;;;;;5114231;28;20406;-77
2023/06/01 02:05:11;;;;;;;10.03;8.73;;;19.00;99.90;;;;;;5095958;28;20435;-81
2023/06/01 02:07:37;;;;;;;9.20;8.30;;;18.90;99.90;;;;;;5114189;28;21005;-77
2023/06/01 02:10:02;;;;;;;14.13;9.90;;;18.90;99.90;;;;;;5114140;28;20209;-77
2023/06/01 02:12:28;;;;;;;11.50;9.17;;;18.90;99.90;;;;;;5114212;28;20213;-80
2023/06/01 02:14:55;;;;;;;12.80;9.37;;;18.90;99.90;;;;;;5095935;28;20461;-80
2023/06/01 02:17:21;;;;;;;11.60;10.13;;;18.90;99.90;;;;;;5096171;28;20493;-78
2023/06/01 02:19:47;;;;;;;14.07;8.77;;;18.90;99.90;;;;;;5114582;28;20427;-77
2023/06/01 02:22:13;;;;;;;10.13;9.07;;;18.90;99.90;;;;;;5114059;28;20812;-81
2023/06/01 02:24:39;;;;;;;12.60;9.40;;;18.90;99.90;;;;;;5095996;28;20717;-81
2023/06/01 02:27:05;;;;;;;14.43;10.27;;;18.90;99.90;;;;;;5113943;28;20181;-81
2023/06/01 02:29:31;;;;;;;10.27;8.47;;;18.90;99.90;;;;;;5095846;28;20434;-80
2023/06/01 02:31:57;;;;;;;9.90;8.10;;;18.90;99.90;;;;;;5118117;28;20453;-77
2023/06/01 02:34:22;;;;;;;13.67;8.17;;;18.90;99.90;;;;;;5118531;28;20430;-80
2023/06/01 02:36:48;;;;;;;11.77;8.23;;;18.90;99.90;;;;;;5118081;28;20497;-77
2023/06/01 02:39:14;;;;;;;10.37;8.30;;;18.90;99.90;;;;;;5134186;27;20188;-80
2023/06/01 02:41:40;;;;;;;10.50;8.10;;;18.80;99.90;;;;;;5133864;27;20200;-77
2023/06/01 02:44:06;;;;;;;10.27;8.40;;;18.80;99.90;;;;;;5117918;28;20986;-77
2023/06/01 02:46:32;;;;;;;12.50;9.23;;;18.70;99.90;;;;;;5117980;28;20185;-77
2023/06/01 02:48:57;;;;;;;10.83;9.40;;;18.60;99.90;;;;;;5133784;27;20433;-77
2023/06/01 02:51:23;;;;;;;15.80;9.20;;;18.60;99.90;;;;;;5117785;28;20212;-77
2023/06/01 02:53:49;;;;;;;9.43;8.53;;;18.60;99.90;;;;;;5118092;28;20203;-80
2023/06/01 02:56:15;;;;;;;11.50;9.30;;;18.60;99.90;;;;;;5117715;28;20189;-77
2023/06/01 02:58:42;;;;;;;12.50;8.40;;;18.50;99.90;;;;;;5133835;27;20327;-80
2023/06/01 03:01:11;;;;;;;13.93;9.47;;;18.50;99.90;;;;;;5117577;28;20420;-77
2023/06/01 03:03:38;;;;;;;10.10;9.10;;;18.50;99.90;;;;;;5099340;28;20964;-77
2023/06/01 03:06:05;;;;;;;10.70;9.43;;;18.50;99.90;;;;;;5099356;28;20445;-77
2023/06/01 03:08:31;;;;;;;14.07;9.87;;;18.60;99.90;;;;;;5117718;28;20427;-77
2023/06/01 03:10:57;;;;;;;11.93;10.20;;;18.60;99.90;;;;;;5117422;28;20863;-77
2023/06/01 03:13:23;;;;;;;10.43;9.43;;;18.70;99.90;;;;;;5117634;28;20418;-78
2023/06/01 03:15:50;;;;;;;21.13;10.87;;;18.70;99.90;;;;;;5117370;28;20818;-77
2023/06/01 03:18:15;;;;;;;11.77;10.33;;;18.70;99.90;;;;;;5117075;28;20586;-77
2023/06/01 03:20:41;;;;;;;10.80;9.70;;;18.70;99.90;;;;;;5117249;28;20496;-77
2023/06/01 03:23:07;;;;;;;10.70;9.40;;;18.70;99.90;;;;;;5117332;28;20185;-80
2023/06/01 03:25:33;;;;;;;10.17;9.10;;;18.70;99.90;;;;;;5117228;28;20185;-77
2023/06/01 03:27:59;;;;;;;11.90;9.90;;;18.70;99.90;;;;;;5117371;28;20264;-77
2023/06/01 03:30:25;;;;;;;13.50;10.43;;;18.70;99.90;;;;;;5117102;28;20961;-79
2023/06/01 03:32:51;;;;;;;15.97;10.40;;;18.70;99.90;;;;;;5117021;28;20200;-81
2023/06/01 03:35:17;;;;;;;13.30;10.60;;;18.70;99.90;;;;;;5117034;28;20421;-80
2023/06/01 03:37:44;;;;;;;14.47;10.90;;;18.70;99.90;;;;;;5117064;28;20412;-77
2023/06/01 03:40:10;;;;;;;13.97;10.40;;;18.70;99.90;;;;;;5116810;28;20924;-80
2023/06/01 03:42:42;;;;;;;10.50;9.23;;;18.60;99.90;;;;;;5097914;28;20417;-80
2023/06/01 03:45:09;;;;;;;15.37;10.60;;;18.50;99.90;;;;;;5116792;28;20934;-80
2023/06/01 03:47:35;;;;;;;14.23;10.97;;;18.40;99.90;;;;;;5116835;28;20410;-77
2023/06/01 03:50:02;;;;;;;12.80;10.70;;;18.40;99.90;;;;;;5098662;28;20454;-80
2023/06/01 03:52:28;;;;;;;12.40;10.93;;;18.30;99.90;;;;;;5116652;28;20452;-81
2023/06/01 03:54:56;;;;;;;12.57;10.50;;;18.20;99.90;;;;;;5132670;27;20554;-77
2023/06/01 03:57:22;;;;;;;17.23;10.90;;;18.10;99.90;;;;;;5116695;28;20398;-77
2023/06/01 03:59:48;;;;;;;13.83;11.33;;;18.00;99.90;;;;;;5115069;28;20570;-77
2023/06/01 04:02:14;;;;;;;12.63;11.30;;;18.00;99.90;;;;;;5112682;27;20976;-80
2023/06/01 04:04:45;;;;;;;17.23;12.33;;;17.90;99.90;;;;;;5096950;28;20421;-80
2023/06/01 04:07:18;;;;;;;17.13;11.60;;;17.80;99.90;;;;;;5097988;28;20412;-80
2023/06/01 04:09:44;;;;;;;19.20;13.53;;;17.80;99.90;;;;;;5115341;28;20481;-77
2023/06/01 04:12:10;;;;;;;14.90;12.77;;;17.80;99.90;;;;;;5115920;28;20448;-77
2023/06/01 04:14:36;;;;;;;17.03;12.50;;;17.90;99.90;;;;;;5116311;28;20429;-77
2023/06/01 04:17:02;;;;;;;19.50;13.43;;;18.00;99.90;;;;;;5115962;28;20957;-77
2023/06/01 04:19:28;;;;;;;76.93;50.80;;;18.00;99.90;;;;;;5116532;28;20181;-77
2023/06/01 04:21:54;;;;;;;284.37;168.17;;;18.10;99.90;;;;;;5116172;28;20415;-81
2023/06/01 04:24:20;;;;;;;43.40;29.77;;;18.20;99.90;;;;;;5116043;28;20176;-81
2023/06/01 04:26:45;;;;;;;28.73;21.97;;;18.20;99.90;;;;;;5115749;28;20429;-77
2023/06/01 04:29:11;;;;;;;20.30;16.93;;;18.30;99.90;;;;;;5131679;27;20188;-81
2023/06/01 04:31:39;;;;;;;16.57;12.97;;;18.30;99.90;;;;;;5115660;28;20207;-78
2023/06/01 04:34:05;;;;;;;17.97;14.80;;;18.40;99.90;;;;;;5096956;28;20903;-81
2023/06/01 04:36:33;;;;;;;19.83;13.97;;;18.50;99.90;;;;;;5098346;28;20849;-77
2023/06/01 04:38:58;;;;;;;16.00;11.97;;;18.50;99.90;;;;;;5115530;28;20444;-77
2023/06/01 04:41:25;;;;;;;14.90;12.50;;;18.60;99.90;;;;;;5112770;28;20453;-83
2023/06/01 04:43:52;;;;;;;15.73;12.10;;;18.70;99.90;;;;;;5114836;28;20265;-77
2023/06/01 04:46:23;;;;;;;14.07;11.83;;;18.80;99.90;;;;;;5114927;28;20486;-77
2023/06/01 04:48:52;;;;;;;58.60;35.47;;;18.90;99.90;;;;;;5114125;28;20443;-77
2023/06/01 04:51:21;;;;;;;16.47;12.67;;;19.00;99.90;;;;;;5114781;28;20469;-77
2023/06/01 04:53:52;;;;;;;12.70;10.40;;;19.00;99.90;;;;;;5088773;28;20868;-77
2023/06/01 04:56:26;;;;;;;15.73;10.27;;;19.10;99.90;;;;;;5107272;28;20836;-81
2023/06/01 04:58:53;;;;;;;12.20;9.60;;;19.20;99.90;;;;;;5112809;28;20443;-78
2023/06/01 05:01:24;;;;;;;11.83;8.90;;;19.30;99.90;;;;;;5113885;28;20455;-77
2023/06/01 05:03:51;;;;;;;13.63;10.10;;;19.30;99.90;;;;;;5109536;27;20972;-83
2023/06/01 05:06:19;;;;;;;12.83;9.57;;;19.40;99.90;;;;;;5103569;28;20448;-78
2023/06/01 05:08:45;;;;;;;14.47;11.17;;;19.50;99.90;;;;;;5093007;28;20437;-82
2023/06/01 05:11:11;;;;;;;13.63;10.13;;;19.50;99.90;;;;;;5110307;28;20475;-77
2023/06/01 05:13:40;;;;;;;12.37;9.03;;;19.60;99.90;;;;;;5106378;28;20435;-78
2023/06/01 05:16:07;;;;;;;10.93;8.93;;;19.60;99.90;;;;;;5108997;28;20481;-78
2023/06/01 05:18:33;;;;;;;9.83;8.83;;;19.80;99.90;;;;;;5090850;28;20473;-77
2023/06/01 05:20:59;;;;;;;11.30;9.43;;;19.80;99.90;;;;;;5088880;28;20501;-77
2023/06/01 05:23:26;;;;;;;11.80;8.87;;;19.90;99.90;;;;;;5106421;28;20982;-77
2023/06/01 05:25:54;;;;;;;13.53;9.20;;;20.00;99.90;;;;;;5105956;28;20771;-78
2023/06/01 05:28:20;;;;;;;15.80;10.00;;;20.10;99.90;;;;;;5084116;28;20465;-83
2023/06/01 05:30:47;;;;;;;13.10;8.50;;;20.10;99.90;;;;;;5120015;27;20443;-77
2023/06/01 05:33:12;;;;;;;9.07;7.43;;;20.20;99.90;;;;;;5106543;28;20447;-83
2023/06/01 05:35:38;;;;;;;13.40;8.40;;;20.30;99.90;;;;;;5090011;28;20432;-77
2023/06/01 05:38:04;;;;;;;8.90;8.00;;;20.30;99.90;;;;;;5109991;28;20187;-77
2023/06/01 05:40:30;;;;;;;8.00;7.20;;;20.40;99.90;;;;;;5090789;28;20203;-78
2023/06/01 05:42:55;;;;;;;12.70;8.63;;;20.50;99.90;;;;;;5109518;28;20440;-81
2023/06/01 05:45:21;;;;;;;13.30;8.90;;;20.60;99.90;;;;;;5111755;28;20283;-82
2023/06/01 05:47:47;;;;;;;10.40;7.40;;;20.60;99.90;;;;;;5109514;28;20184;-78
2023/06/01 05:50:12;;;;;;;10.00;7.67;;;20.70;99.90;;;;;;5112643;28;20678;-82
2023/06/01 05:52:39;;;;;;;13.03;7.30;;;20.80;99.90;;;;;;5111849;28;20290;-82
2023/06/01 05:55:05;;;;;;;11.27;9.07;;;20.80;99.90;;;;;;5098193;28;20207;-78
2023/06/01 05:57:31;;;;;;;9.80;8.57;;;20.90;99.90;;;;;;5112325;28;20762;-77
2023/06/01 05:59:56;;;;;;;11.67;9.10;;;20.90;99.90;;;;;;5109073;28;20463;-78
2023/06/01 06:02:22;;;;;;;10.50;8.67;;;21.00;99.90;;;;;;5109473;28;20172;-77
2023/06/01 06:04:48;;;;;;;10.00;8.30;;;21.10;99.90;;;;;;5092455;28;20180;-78
2023/06/01 06:07:13;;;;;;;9.40;7.70;;;21.10;99.90;;;;;;5096018;28;20183;-78
2023/06/01 06:09:40;;;;;;;7.90;6.33;;;21.20;99.90;;;;;;5095042;28;20191;-82
2023/06/01 06:12:07;;;;;;;9.30;7.50;;;21.20;99.90;;;;;;5094489;28;20719;-77
2023/06/01 06:14:33;;;;;;;8.23;7.43;;;21.30;99.90;;;;;;5091194;28;20937;-82
2023/06/01 06:17:00;;;;;;;7.20;6.40;;;21.40;99.90;;;;;;5106623;28;20520;-77
2023/06/01 06:19:26;;;;;;;8.90;7.00;;;21.50;99.90;;;;;;5091432;28;20521;-78
2023/06/01 06:21:51;;;;;;;7.93;7.13;;;21.70;99.90;;;;;;5107627;28;20420;-77
2023/06/01 06:24:17;;;;;;;8.87;6.80;;;21.80;99.90;;;;;;5106857;28;20497;-77
2023/06/01 06:26:43;;;;;;;9.17;7.00;;;21.90;99.90;;;;;;5107095;28;20200;-84
2023/06/01 06:29:08;;;;;;;10.00;6.80;;;21.90;99.90;;;;;;5109039;28;20214;-82
2023/06/01 06:31:34;;;;;;;10.20;7.00;;;22.00;99.90;;;;;;5107191;28;20767;-77
2023/06/01 06:34:01;;;;;;;10.80;7.60;;;22.00;99.90;;;;;;5092340;28;20632;-82
2023/06/01 06:36:30;;;;;;;9.70;7.17;;;22.10;99.90;;;;;;5098558;28;20724;-82
2023/06/01 06:38:55;;;;;;;8.13;6.90;;;22.20;99.90;;;;;;5085337;28;20424;-76
2023/06/01 06:41:22;;;;;;;10.47;7.93;;;22.30;99.90;;;;;;5088285;28;20822;-77
2023/06/01 06:43:50;;;;;;;7.90;7.10;;;22.40;99.90;;;;;;5091216;28;20187;-77
2023/06/01 06:46:16;;;;;;;7.60;6.90;;;22.50;99.90;;;;;;5088968;28;20688;-81
2023/06/01 06:48:42;;;;;;;6.63;5.87;;;22.60;99.90;;;;;;5106726;28;21095;-82
2023/06/01 06:51:08;;;;;;;8.30;7.10;;;22.60;99.90;;;;;;5086489;28;20231;-81
2023/06/01 06:53:33;;;;;;;7.60;6.87;;;22.70;99.90;;;;;;5097841;28;20682;-82
2023/06/01 06:55:59;;;;;;;8.60;7.10;;;22.80;99.90;;;;;;5108762;28;20237;-81
2023/06/01 06:58:25;;;;;;;8.10;7.30;;;22.90;99.90;;;;;;5106717;28;20693;-82
2023/06/01 07:00:51;;;;;;;10.77;6.80;;;23.00;99.90;;;;;;5089143;28;20454;-77
2023/06/01 07:03:17;;;;;;;11.90;6.43;;;23.00;99.90;;;;;;5105465;28;20499;-81
2023/06/01 07:05:45;;;;;;;8.40;6.93;;;23.00;99.90;;;;;;5089673;28;20203;-81
2023/06/01 07:08:11;;;;;;;9.50;6.60;;;23.10;99.90;;;;;;5107045;28;20432;-82
2023/06/01 07:10:36;;;;;;;7.60;6.27;;;23.20;99.90;;;;;;5110780;28;20629;-77
2023/06/01 07:13:02;;;;;;;8.27;6.50;;;23.30;99.90;;;;;;5111996;28;20471;-82
2023/06/01 07:15:28;;;;;;;6.30;5.67;;;23.30;99.90;;;;;;5104460;28;20202;-77
2023/06/01 07:17:53;;;;;;;6.73;6.00;;;23.30;99.90;;;;;;5114559;28;20607;-77
2023/06/01 07:20:19;;;;;;;6.80;6.10;;;23.40;99.90;;;;;;5115907;27;20201;-77
2023/06/01 07:22:45;;;;;;;9.73;6.40;;;23.40;99.90;;;;;;5090613;28;20679;-82
2023/06/01 07:25:13;;;;;;;6.87;6.13;;;23.50;99.90;;;;;;5113917;28;20207;-77
2023/06/01 07:27:43;;;;;;;6.10;5.50;;;23.60;99.90;;;;;;5096214;28;20173;-78
2023/06/01 07:30:10;;;;;;;7.67;6.67;;;23.70;99.90;;;;;;5117536;27;20439;-78
2023/06/01 07:32:36;;;;;;;6.83;5.23;;;23.70;99.90;;;;;;5093452;28;20468;-78
2023/06/01 07:35:04;;;;;;;6.53;5.90;;;23.80;99.90;;;;;;5094381;28;20528;-78
2023/06/01 07:37:31;;;;;;;8.53;6.53;;;23.90;99.90;;;;;;5090620;28;20410;-82
2023/06/01 07:39:57;;;;;;;7.97;5.23;;;23.90;99.90;;;;;;5112893;28;20490;-78
2023/06/01 07:42:23;;;;;;;7.57;6.77;;;23.90;99.90;;;;;;5113688;28;20466;-78
2023/06/01 07:44:49;;;;;;;7.43;5.90;;;24.00;99.90;;;;;;5112737;28;20568;-82
2023/06/01 07:47:15;;;;;;;7.20;5.70;;;24.10;99.90;;;;;;5099898;28;20448;-82
2023/06/01 07:49:40;;;;;;;6.37;5.77;;;24.20;99.90;;;;;;5096575;28;20199;-78
2023/06/01 07:52:07;;;;;;;8.07;6.37;;;24.20;99.90;;;;;;5095189;28;20466;-78
2023/06/01 07:54:35;;;;;;;6.70;6.00;;;24.30;99.90;;;;;;5109785;28;20191;-82
2023/06/01 07:57:02;;;;;;;10.67;6.03;;;24.40;99.90;;;;;;5090433;28;20519;-82
2023/06/01 07:59:29;;;;;;;9.70;6.87;;;24.60;99.90;;;;;;5093462;28;20450;-78
2023/06/01 08:01:55;;;;;;;6.60;5.87;;;24.70;99.90;;;;;;5090925;28;21019;-82
2023/06/01 08:04:21;;;;;;;6.77;6.17;;;24.70;99.90;;;;;;5090130;28;20474;-82
2023/06/01 08:06:47;;;;;;;7.20;5.90;;;24.70;99.90;;;;;;5107825;28;20479;-82
2023/06/01 08:09:13;;;;;;;7.47;5.47;;;24.70;99.90;;;;;;5111103;28;20490;-77
2023/06/01 08:11:39;;;;;;;6.70;5.20;;;24.80;99.90;;;;;;5089382;28;20498;-77
2023/06/01 08:14:08;;;;;;;5.93;5.40;;;24.90;99.90;;;;;;5108584;27;20176;-82
2023/06/01 08:16:34;;;;;;;10.00;5.60;;;25.00;99.90;;;;;;5110689;28;20191;-82
2023/06/01 08:19:00;;;;;;;6.57;5.90;;;25.10;99.90;;;;;;5109521;28;20803;-77
2023/06/01 08:21:26;;;;;;;7.80;5.60;;;25.20;99.90;;;;;;5108837;28;20451;-82
2023/06/01 08:23:56;;;;;;;6.23;5.40;;;25.20;99.90;;;;;;5093637;28;20640;-78
2023/06/01 08:26:23;;;;;;;6.90;5.43;;;25.20;99.90;;;;;;5111867;28;20676;-78
2023/06/01 08:28:51;;;;;;;6.73;6.03;;;25.30;99.90;;;;;;5094228;28;20428;-78
2023/06/01 08:31:20;;;;;;;5.23;4.73;;;25.40;99.90;;;;;;5094683;28;20463;-78
2023/06/01 08:33:47;;;;;;;7.03;4.90;;;25.40;99.90;;;;;;5111163;28;20788;-78
2023/06/01 08:36:13;;;;;;;5.20;4.70;;;25.30;99.90;;;;;;5096734;28;20452;-82
2023/06/01 08:38:40;;;;;;;5.50;5.00;;;25.30;99.90;;;;;;5093452;28;20437;-82
2023/06/01 08:41:31;;;;;;;6.90;5.80;;;25.30;99.90;;;;;;5110830;28;20190;-78
2023/06/01 08:44:03;;;;;;;5.43;4.93;;;25.50;99.90;;;;;;5107537;28;20569;-82
2023/06/01 08:46:32;;;;;;;5.47;4.90;;;25.60;99.90;;;;;;5104685;27;20459;-78
2023/06/01 08:48:59;;;;;;;6.67;6.10;;;25.70;99.90;;;;;;5090956;28;20505;-82
2023/06/01 08:51:25;;;;;;;7.23;5.43;;;25.70;99.90;;;;;;5084867;28;20466;-79
2023/06/01 08:53:53;;;;;;;5.40;4.73;;;25.80;99.90;;;;;;5108075;28;20471;-78
2023/06/01 08:56:21;;;;;;;7.13;5.30;;;25.90;99.90;;;;;;5087372;28;20449;-78
2023/06/01 08:58:48;;;;;;;7.50;5.50;;;25.90;99.90;;;;;;5087558;28;20432;-77
2023/06/01 09:01:23;;;;;;;5.40;4.90;;;25.90;99.90;;;;;;5089444;28;20810;-82
2023/06/01 09:03:52;;;;;;;8.70;5.83;;;26.00;99.90;;;;;;5104379;28;20761;-82
2023/06/01 09:06:18;;;;;;;6.50;5.90;;;26.00;99.90;;;;;;5076539;28;20441;-81
2023/06/01 09:08:47;;;;;;;9.27;5.97;;;26.10;99.90;;;;;;5101155;28;20538;-81
2023/06/01 09:11:13;;;;;;;6.40;4.30;;;26.20;99.90;;;;;;5109689;28;20844;-77
2023/06/01 09:13:40;;;;;;;6.77;5.30;;;26.30;99.90;;;;;;5093302;28;20435;-81
2023/06/01 09:16:06;;;;;;;5.73;5.13;;;26.40;99.90;;;;;;5109242;28;20196;-81
2023/06/01 09:18:32;;;;;;;6.10;4.87;;;26.50;99.90;;;;;;5098994;28;20468;-82
2023/06/01 09:21:12;;;;;;;5.73;5.00;;;26.60;99.90;;;;;;5089768;28;20431;-82
2023/06/01 09:23:38;;;;;;;6.23;5.60;;;26.70;99.90;;;;;;5103154;28;20443;-82
2023/06/01 09:26:06;;;;;;;6.13;4.87;;;26.80;99.90;;;;;;5107370;28;20451;-78
2023/06/01 09:28:51;;;;;;;5.40;4.90;;;26.80;99.90;;;;;;5108366;28;20463;-83
2023/06/01 09:31:47;;;;;;;10.90;6.23;;;26.70;99.90;;;;;;5110229;28;20452;-78
2023/06/01 09:34:18;;;;;;;7.33;5.50;;;26.70;99.90;;;;;;5100885;28;20443;-82
2023/06/01 09:36:52;;;;;;;6.30;5.17;;;26.70;99.90;;;;;;5105933;28;20423;-78
2023/06/01 09:39:20;;;;;;;8.40;6.13;;;26.80;99.90;;;;;;5079499;28;20487;-78
2023/06/01 09:41:56;;;;;;;7.10;5.27;;;26.90;99.90;;;;;;5091344;28;20520;-78
2023/06/01 09:44:27;;;;;;;6.43;5.80;;;26.90;99.90;;;;;;5087243;28;20441;-78
2023/06/01 09:46:58;;;;;;;5.33;4.80;;;26.90;99.90;;;;;;5124498;27;20494;-81
2023/06/01 09:49:29;;;;;;;9.77;5.70;;;26.80;99.90;;;;;;5107972;28;20424;-81
2023/06/01 09:52:03;;;;;;;8.63;5.73;;;26.90;99.90;;;;;;5095236;28;20450;-78
2023/06/01 09:54:31;;;;;;;5.90;4.93;;;26.90;99.90;;;;;;5087343;28;20647;-78
2023/06/01 09:56:57;;;;;;;6.20;5.10;;;27.00;99.90;;;;;;5106835;28;20432;-82
2023/06/01 09:59:24;;;;;;;7.30;4.77;;;27.10;99.90;;;;;;5107395;27;20482;-78
2023/06/01 10:01:55;;;;;;;6.27;5.20;;;27.10;99.90;;;;;;5106856;28;20439;-81
2023/06/01 10:04:26;;;;;;;5.60;5.00;;;26.90;99.90;;;;;;5086097;28;20809;-77
2023/06/01 10:06:56;;;;;;;7.30;5.70;;;27.00;99.90;;;;;;5105152;28;20456;-77
2023/06/01 10:09:24;;;;;;;6.87;6.17;;;26.90;99.90;;;;;;5107637;28;20432;-82
2023/06/01 10:11:55;;;;;;;8.00;5.40;;;27.00;99.90;;;;;;5092342;28;20834;-82
2023/06/01 10:14:23;;;;;;;5.97;5.00;;;27.10;99.90;;;;;;5099375;28;20432;-81
2023/06/01 10:16:51;;;;;;;6.13;5.53;;;27.20;99.90;;;;;;5109707;28;20650;-82
2023/06/01 10:19:18;;;;;;;11.20;5.77;;;27.30;99.90;;;;;;5109024;28;20589;-81
2023/06/01 10:21:45;;;;;;;5.90;5.40;;;27.30;99.90;;;;;;5110393;28;20797;-78
2023/06/01 10:24:16;;;;;;;7.23;5.47;;;27.40;99.90;;;;;;5108608;28;20826;-78
2023/06/01 10:26:49;;;;;;;6.90;6.20;;;27.40;99.90;;;;;;5092032;28;20516;-82
2023/06/01 10:29:18;;;;;;;7.83;4.70;;;27.50;99.90;;;;;;5109159;28;20799;-81
2023/06/01 10:31:44;;;;;;;7.30;6.10;;;27.50;99.90;;;;;;5090277;28;20605;-82
2023/06/01 10:34:11;;;;;;;7.67;5.73;;;27.60;99.90;;;;;;5103977;28;20451;-82
2023/06/01 10:36:52;;;;;;;5.80;5.23;;;27.70;99.90;;;;;;5118487;27;20536;-82
2023/06/01 10:39:40;;;;;;;7.10;5.73;;;27.80;99.90;;;;;;5075368;28;20860;-78
2023/06/01 10:42:14;;;;;;;7.00;6.30;;;27.90;99.90;;;;;;5082412;28;20763;-82
2023/06/01 10:44:40;;;;;;;8.87;5.90;;;27.90;99.90;;;;;;5103028;28;20636;-81
2023/06/01 10:47:11;;;;;;;9.60;5.40;;;28.00;99.90;;;;;;5103041;28;20770;-78
2023/06/01 10:49:49;;;;;;;7.00;5.60;;;28.00;99.90;;;;;;5095301;28;20561;-82
2023/06/01 10:52:28;;;;;;;7.03;6.33;;;28.10;99.90;;;;;;5089292;28;20895;-82
2023/06/01 10:55:06;;;;;;;6.60;5.90;;;28.10;99.90;;;;;;5110037;27;20538;-79
2023/06/01 10:57:32;;;;;;;6.10;5.23;;;28.20;99.90;;;;;;5111009;28;20453;-78
2023/06/01 11:00:14;;;;;;;5.57;5.03;;;28.20;99.90;;;;;;5109349;28;20470;-78
2023/06/01 11:02:59;;;;;;;10.73;5.53;;;28.20;99.90;;;;;;5104637;28;20442;-78
2023/06/01 11:05:47;;;;;;;6.77;5.73;;;28.30;99.90;;;;;;5110335;28;20439;-82
2023/06/01 11:08:28;;;;;;;6.10;5.50;;;28.40;99.90;;;;;;5114358;28;20485;-78
2023/06/01 11:11:03;;;;;;;11.87;6.30;;;28.20;99.90;;;;;;5111097;27;20907;-82
2023/06/01 11:13:34;;;;;;;7.00;6.30;;;27.70;99.90;;;;;;5112959;27;20504;-78
2023/06/01 11:16:27;;;;;;;5.93;5.23;;;27.70;99.90;;;;;;5101495;28;20511;-78
2023/06/01 11:18:58;;;;;;;6.87;5.90;;;27.80;99.90;;;;;;5111729;28;20897;-81
2023/06/01 11:21:30;;;;;;;6.30;5.03;;;28.00;99.90;;;;;;5094625;28;20454;-79
2023/06/01 11:24:01;;;;;;;6.67;5.97;;;28.20;99.90;;;;;;5093459;28;20448;-82
2023/06/01 11:26:36;;;;;;;9.07;7.07;;;28.30;99.30;;;;;;5114792;27;20493;-78
2023/06/01 11:29:18;;;;;;;6.43;5.63;;;28.40;99.00;;;;;;5097397;28;20478;-82
2023/06/01 11:31:48;;;;;;;8.07;5.13;;;28.40;98.80;;;;;;5115794;27;20833;-79
2023/06/01 11:34:17;;;;;;;11.30;5.97;;;28.30;99.90;;;;;;5131631;27;20430;-79
2023/06/01 11:36:48;;;;;;;7.70;5.33;;;28.30;99.50;;;;;;5091753;27;20449;-82
2023/06/01 11:39:25;;;;;;;6.00;5.43;;;28.40;98.80;;;;;;5118637;27;20453;-78
2023/06/01 11:42:05;;;;;;;5.90;5.30;;;28.20;99.90;;;;;;5091161;28;20465;-78
2023/06/01 11:44:31;;;;;;;6.63;5.97;;;28.40;97.90;;;;;;5085274;28;20462;-79
2023/06/01 11:46:58;;;;;;;6.17;5.57;;;28.50;98.00;;;;;;5089355;28;20458;-82
2023/06/01 11:49:25;;;;;;;6.47;5.87;;;28.60;96.40;;;;;;5092690;27;20488;-83
2023/06/01 11:51:51;;;;;;;6.67;5.97;;;28.60;97.40;;;;;;5120396;27;20459;-78
2023/06/01 11:54:22;;;;;;;8.43;5.93;;;28.70;97.00;;;;;;5094370;27;20546;-82
2023/06/01 11:56:48;;;;;;;6.50;5.90;;;28.70;96.20;;;;;;5120843;27;20457;-83
2023/06/01 11:59:13;;;;;;;5.70;5.20;;;28.80;95.90;;;;;;5090509;28;20427;-81
2023/06/01 12:01:47;;;;;;;9.70;5.50;;;28.90;95.50;;;;;;5093582;28;20202;-78
2023/06/01 12:04:14;;;;;;;6.47;5.80;;;28.90;96.30;;;;;;5106304;28;20705;-82
2023/06/01 12:06:40;;;;;;;8.00;5.13;;;28.80;95.70;;;;;;5094394;28;20556;-78
2023/06/01 12:09:06;;;;;;;6.30;5.70;;;28.80;96.40;;;;;;5109869;28;20526;-81
2023/06/01 12:11:32;;;;;;;5.87;5.33;;;28.50;97.60;;;;;;5092138;28;20629;-78
2023/06/01 12:13:59;;;;;;;7.60;5.70;;;28.50;98.10;;;;;;5096064;28;20552;-77
2023/06/01 12:16:27;;;;;;;7.87;6.17;;;28.30;98.60;;;;;;5103290;27;20813;-80
2023/06/01 12:18:54;;;;;;;7.73;5.83;;;28.10;98.30;;;;;;5106614;28;20995;-81
2023/06/01 12:21:20;;;;;;;8.10;6.60;;;28.20;98.10;;;;;;5121967;27;20936;-82
2023/06/01 12:23:53;;;;;;;5.93;5.40;;;28.40;97.70;;;;;;5096049;28;20536;-78
2023/06/01 12:26:19;;;;;;;6.67;6.07;;;28.40;98.30;;;;;;5090302;28;20205;-79
2023/06/01 12:28:54;;;;;;;9.70;6.13;;;28.20;98.90;;;;;;5109752;28;20960;-79
2023/06/01 12:31:20;;;;;;;9.40;6.07;;;28.10;98.80;;;;;;5105350;28;20563;-78
2023/06/01 12:33:48;;;;;;;5.70;5.20;;;28.00;99.00;;;;;;5087303;28;20449;-78
2023/06/01 12:36:31;;;;;;;6.90;5.80;;;28.00;99.30;;;;;;5110062;27;20458;-81
2023/06/01 12:38:58;;;;;;;6.70;6.00;;;28.00;99.50;;;;;;5111675;28;20468;-78
2023/06/01 12:41:24;;;;;;;7.47;5.83;;;28.00;99.40;;;;;;5109647;28;20453;-78
2023/06/01 12:43:51;;;;;;;7.07;6.03;;;27.90;99.50;;;;;;5108822;27;20442;-82
2023/06/01 12:46:18;;;;;;;7.17;6.20;;;28.00;97.90;;;;;;5090859;28;20449;-82
2023/06/01 12:48:46;;;;;;;6.70;6.00;;;28.10;98.00;;;;;;5092060;28;20481;-81